createdAt,value
2018-06-24T00:00:13.183Z,1.12
2018-06-24T00:06:08.221Z,1.19
2018-06-24T00:12:03.165Z,0.92
2018-06-24T00:17:58.199Z,1.21
2018-06-24T00:23:53.223Z,1.01
2018-06-24T00:29:48.217Z,1.13
2018-06-24T00:35:43.241Z,1.15
2018-06-24T00:41:38.292Z,1.02
2018-06-24T00:47:33.191Z,0.76
2018-06-24T00:53:28.234Z,1.08
2018-06-24T00:59:23.241Z,1.07
2018-06-24T01:05:18.243Z,1.03
2018-06-24T01:11:13.271Z,1.06
2018-06-24T01:17:08.235Z,0.9
2018-06-24T01:23:03.292Z,0.83
2018-06-24T01:28:58.205Z,1.04
2018-06-24T01:34:53.313Z,1.22
2018-06-24T01:40:48.286Z,1.08
2018-06-24T01:46:43.255Z,1.05
2018-06-24T01:52:38.252Z,0.99
2018-06-24T01:58:33.286Z,0.92
2018-06-24T02:04:28.281Z,1.15
2018-06-24T02:10:23.272Z,0.91
2018-06-24T02:16:18.261Z,1.13
2018-06-24T02:22:13.268Z,1.08
2018-06-24T02:28:08.292Z,1.23
2018-06-24T02:34:03.283Z,1.19
2018-06-24T02:39:58.327Z,1.05
2018-06-24T02:45:53.292Z,1.05
2018-06-24T02:51:48.320Z,1.29
2018-06-24T02:57:43.340Z,1.11
2018-06-24T03:03:38.272Z,1.01
2018-06-24T03:09:33.293Z,1.01
2018-06-24T03:15:28.318Z,1.37
2018-06-24T03:21:23.281Z,1.06
2018-06-24T03:27:18.302Z,0.96
2018-06-24T03:33:13.323Z,1.47
2018-06-24T03:39:08.358Z,1.28
2018-06-24T03:45:03.312Z,1.92
2018-06-24T03:50:58.314Z,1.33
2018-06-24T03:56:53.340Z,1.38
2018-06-24T04:02:48.359Z,1.24
2018-06-24T04:08:43.333Z,1.64
2018-06-24T04:14:38.329Z,1.19
2018-06-24T04:20:33.341Z,0.85
2018-06-24T04:26:28.344Z,1.13
2018-06-24T04:32:23.345Z,1.17
2018-06-24T04:38:18.376Z,1.14
2018-06-24T04:44:13.364Z,1.35
2018-06-24T04:50:08.365Z,1.27
2018-06-24T04:56:03.463Z,1.41
2018-06-24T05:01:58.351Z,1.48
2018-06-24T05:07:53.344Z,1.14
2018-06-24T05:13:48.379Z,1.34
2018-06-24T05:19:43.380Z,1.5
2018-06-24T05:25:38.361Z,1.15
2018-06-24T05:31:33.414Z,1.22
2018-06-24T05:37:28.381Z,1.27
2018-06-24T05:43:23.414Z,2.58
2018-06-24T05:49:18.428Z,1.6
2018-06-24T05:55:13.392Z,1.4
2018-06-24T06:01:08.376Z,1.46
2018-06-24T06:07:03.451Z,1.99
2018-06-24T06:12:58.469Z,1.6
2018-06-24T06:18:53.442Z,1.89
2018-06-24T06:24:48.421Z,2.01
2018-06-24T06:30:43.423Z,2.3
2018-06-24T06:36:38.427Z,1.83
2018-06-24T06:42:33.455Z,1.71
2018-06-24T06:48:28.442Z,1.6
2018-06-24T06:54:23.485Z,1.46
2018-06-24T07:00:18.440Z,1.32
2018-06-24T07:06:13.454Z,1.14
2018-06-24T07:12:08.413Z,1.17
2018-06-24T07:18:03.423Z,1.38
2018-06-24T07:23:58.476Z,1.15
2018-06-24T07:29:53.468Z,1.24
2018-06-24T07:35:48.456Z,1.2
2018-06-24T07:41:43.447Z,1.18
2018-06-24T07:47:38.469Z,1.2
2018-06-24T07:53:33.440Z,1.39
2018-06-24T07:59:28.517Z,1.21
2018-06-24T08:05:23.509Z,1.56
2018-06-24T08:11:18.480Z,1.19
2018-06-24T08:17:13.461Z,1.55
2018-06-24T08:23:08.485Z,1.66
2018-06-24T08:29:03.471Z,1.74
2018-06-24T08:34:58.451Z,1.52
2018-06-24T08:40:53.468Z,1.3
2018-06-24T08:46:48.531Z,1.36
2018-06-24T08:52:43.482Z,1.39
2018-06-24T08:58:38.483Z,1.42
2018-06-24T09:04:33.502Z,1.32
2018-06-24T09:10:28.477Z,1.2
2018-06-24T09:16:23.480Z,2.04
2018-06-24T09:22:18.487Z,1.83
2018-06-24T09:28:13.517Z,1.31
2018-06-24T09:34:08.572Z,1.38
2018-06-24T09:40:03.534Z,1.39
2018-06-24T09:45:58.608Z,1.23
2018-06-24T09:51:53.522Z,1.23
2018-06-24T09:57:48.516Z,1.31
2018-06-24T10:03:43.523Z,2.22
2018-06-24T10:09:38.519Z,4.1
2018-06-24T10:15:33.562Z,4.29
2018-06-24T10:21:28.553Z,1.58
2018-06-24T10:27:23.550Z,1.1
2018-06-24T10:33:18.615Z,1.75
2018-06-24T10:39:13.580Z,2.09
2018-06-24T10:45:08.561Z,1.03
2018-06-24T10:51:03.604Z,1.34
2018-06-24T10:56:58.564Z,1.62
2018-06-24T11:02:53.547Z,1.42
2018-06-24T11:08:48.591Z,1.35
2018-06-24T11:14:43.566Z,1.15
2018-06-24T11:20:38.611Z,1.26
2018-06-24T11:26:33.633Z,1.06
2018-06-24T11:32:28.595Z,1.21
2018-06-24T11:38:23.558Z,1.2
2018-06-24T11:44:18.616Z,1.3
2018-06-24T11:50:13.561Z,1.33
2018-06-24T11:56:08.575Z,1.2
2018-06-24T12:02:03.596Z,1
2018-06-24T12:07:58.619Z,1
2018-06-24T12:13:53.625Z,1.08
2018-06-24T12:19:48.614Z,2.49
2018-06-24T12:25:43.615Z,1.01
2018-06-24T12:31:38.606Z,0.89
2018-06-24T12:37:33.603Z,1.13
2018-06-24T12:43:28.640Z,1.18
2018-06-24T12:49:23.638Z,1.35
2018-06-24T12:55:18.602Z,1.25
2018-06-24T13:01:13.609Z,1.33
2018-06-24T13:07:08.709Z,1.02
2018-06-24T13:13:03.665Z,1.17
2018-06-24T13:18:58.621Z,0.78
2018-06-24T13:24:53.693Z,1.15
2018-06-24T13:30:48.614Z,1.05
2018-06-24T13:36:43.627Z,1.03
2018-06-24T13:42:38.632Z,1.15
2018-06-24T13:48:33.703Z,1.34
2018-06-24T13:54:28.684Z,0.96
2018-06-24T14:00:23.689Z,1.19
2018-06-24T14:06:18.675Z,1.13
2018-06-24T14:12:13.672Z,1
2018-06-24T14:18:08.681Z,1.23
2018-06-24T14:24:03.771Z,1.12
2018-06-24T14:29:58.700Z,1.1
2018-06-24T14:35:53.713Z,1.03
2018-06-24T14:41:48.683Z,1.17
2018-06-24T14:47:43.663Z,1.2
2018-06-24T14:53:38.684Z,1.13
2018-06-24T14:59:33.678Z,1.23
2018-06-24T15:05:28.729Z,1.41
2018-06-24T15:11:23.716Z,1.38
2018-06-24T15:17:18.692Z,1.43
2018-06-24T15:23:13.722Z,1.16
2018-06-24T15:29:08.733Z,1.22
2018-06-24T15:35:03.725Z,1.29
2018-06-24T15:40:58.749Z,1.08
2018-06-24T15:46:53.766Z,1.28
2018-06-24T15:52:48.715Z,1.01
2018-06-24T15:58:43.761Z,1.01
2018-06-24T16:04:38.733Z,1.14
2018-06-24T16:10:33.766Z,1.57
2018-06-24T16:16:28.748Z,1.27
2018-06-24T16:22:23.758Z,1.31
2018-06-24T16:28:18.739Z,2.3
2018-06-24T16:34:13.768Z,4.85
2018-06-24T16:40:08.797Z,29.9
2018-06-24T16:46:03.791Z,4.74
2018-06-24T16:51:58.768Z,14.76
2018-06-24T16:57:53.810Z,13.76
2018-06-24T17:03:48.810Z,18.9
2018-06-24T17:09:43.760Z,14.52
2018-06-24T17:15:38.780Z,7.49
2018-06-24T17:21:33.874Z,103.22
2018-06-24T17:27:28.773Z,47.88
2018-06-24T17:33:23.788Z,7.31
2018-06-24T17:39:18.759Z,2.61
2018-06-24T17:45:13.781Z,3.04
2018-06-24T17:51:08.814Z,190.61
2018-06-24T17:54:36.659Z,656.3
2018-06-24T18:00:31.704Z,617.08
2018-06-24T18:06:26.664Z,467.75
2018-06-24T18:12:21.684Z,318.94
2018-06-24T18:18:16.668Z,320.52
2018-06-24T18:24:11.672Z,227.38
2018-06-24T18:30:06.750Z,185.53
2018-06-24T18:36:01.708Z,164.89
2018-06-24T18:41:56.733Z,66.53
2018-06-24T18:47:51.714Z,131.41
2018-06-24T18:53:46.704Z,10.32
2018-06-24T18:59:41.720Z,1.83
2018-06-24T19:05:36.730Z,69.71
2018-06-24T19:11:31.747Z,108.67
2018-06-24T19:17:26.726Z,8.03
2018-06-24T19:23:21.697Z,1.38
2018-06-24T19:29:16.716Z,13.62
2018-06-24T19:35:11.745Z,1.74
2018-06-24T19:41:06.740Z,21.51
2018-06-24T19:47:01.703Z,3.68
2018-06-24T19:52:56.738Z,70.13
2018-06-24T19:58:51.760Z,5.97
2018-06-24T20:04:46.777Z,1.77
2018-06-24T20:10:41.734Z,1.64
2018-06-24T20:16:36.795Z,18.6
2018-06-24T20:22:31.769Z,2.98
2018-06-24T20:28:26.747Z,1.58
2018-06-24T20:34:21.784Z,1.56
2018-06-24T20:40:16.766Z,1.7
2018-06-24T20:46:11.814Z,1.6
2018-06-24T20:52:06.736Z,1.65
2018-06-24T20:58:01.775Z,1.44
2018-06-24T21:03:56.771Z,1.41
2018-06-24T21:09:51.774Z,1.43
2018-06-24T21:15:46.899Z,1.54
2018-06-24T21:21:41.858Z,1.35
2018-06-24T21:27:36.810Z,1.37
2018-06-24T21:33:31.761Z,1.32
2018-06-24T21:39:26.773Z,1.39
2018-06-24T21:45:21.820Z,1.36
2018-06-24T21:51:16.770Z,1.47
2018-06-24T21:57:11.775Z,1.6
2018-06-24T22:03:06.770Z,1.92
2018-06-24T22:09:01.819Z,1.64
2018-06-24T22:14:56.797Z,1.56
2018-06-24T22:20:51.839Z,1.24
2018-06-24T22:26:46.821Z,1.43
2018-06-24T22:32:41.814Z,1.52
2018-06-24T22:38:36.807Z,1.24
2018-06-24T22:44:31.887Z,1.59
2018-06-24T22:50:26.849Z,1.66
2018-06-24T22:56:21.838Z,1.77
2018-06-24T23:02:16.833Z,1.55
2018-06-24T23:08:11.840Z,1.73
2018-06-24T23:14:06.860Z,1.67
2018-06-24T23:20:01.871Z,1.79
2018-06-24T23:25:56.841Z,1.98
2018-06-24T23:31:51.868Z,1.74
2018-06-24T23:37:46.902Z,1.85
2018-06-24T23:43:41.918Z,1.95
2018-06-24T23:49:36.873Z,1.9
2018-06-24T23:55:31.840Z,2.24
